Time;durP1;ratioP1;P1;durP2;ratioP2;P2;SDS_P1;SDS_P2;PMS_P1;PMS_P2;Temp;Humidity;BMP_temperature;BMP_pressure;BME280_temperature;BME280_humidity;BME280_pressure;Samples;Min_cycle;Max_cycle;Signal;HPM_P1;HPM_P2
2020/12/27 00:00:58;;;;;;;0.70;0.70;;;20.50;45.10;;;;;;6300105;28;20473;-50
2020/12/27 00:03:58;;;;;;;0.75;0.75;;;20.50;45.00;;;;;;6300252;28;20435;-50
2020/12/27 00:07:03;;;;;;;5.78;0.60;;;20.50;45.00;;;;;;6299666;28;20035;-52
2020/12/27 00:10:04;;;;;;;;;;;20.50;45.00;;;;;;6281183;28;20636;-51
2020/12/27 00:13:05;;;;;;;0.75;0.55;;;20.50;45.10;;;;;;6274826;28;19912;-49
2020/12/27 00:16:05;;;;;;;0.65;0.60;;;20.50;45.10;;;;;;6293281;28;20063;-53
2020/12/27 00:19:06;;;;;;;0.63;0.40;;;20.50;45.00;;;;;;6282501;28;20051;-49
2020/12/27 00:22:10;;;;;;;1.00;0.77;;;20.50;45.00;;;;;;6299861;28;20395;-50
2020/12/27 00:25:11;;;;;;;0.93;0.57;;;20.40;45.00;;;;;;6299981;28;20097;-53
2020/12/27 00:28:11;;;;;;;0.93;0.65;;;20.40;45.00;;;;;;6299922;28;20067;-48
2020/12/27 00:31:16;;;;;;;0.65;0.60;;;20.50;45.00;;;;;;6300203;28;20020;-52
2020/12/27 00:34:17;;;;;;;1.10;0.70;;;20.50;45.00;;;;;;6293095;28;20025;-53
2020/12/27 00:37:17;;;;;;;0.85;0.73;;;20.40;45.00;;;;;;6292894;28;20082;-50
2020/12/27 00:40:18;;;;;;;0.68;0.55;;;20.40;45.00;;;;;;6274874;28;20397;-50
2020/12/27 00:43:19;;;;;;;1.35;0.60;;;20.40;45.00;;;;;;6274938;28;20041;-49
2020/12/27 00:46:20;;;;;;;0.85;0.63;;;20.40;45.00;;;;;;6274757;28;20082;-51
2020/12/27 00:49:21;;;;;;;0.70;0.60;;;20.40;45.00;;;;;;6279967;28;20485;-49
2020/12/27 00:52:22;;;;;;;0.80;0.60;;;20.40;45.00;;;;;;6298936;28;20027;-53
2020/12/27 00:55:22;;;;;;;0.55;0.50;;;20.40;45.00;;;;;;6299613;28;20469;-50
2020/12/27 00:58:23;;;;;;;0.70;0.63;;;20.40;45.10;;;;;;6299283;28;20055;-51
2020/12/27 01:01:23;;;;;;;1.30;0.50;;;20.40;45.00;;;;;;6278422;28;20081;-53
2020/12/27 01:04:24;;;;;;;1.75;0.43;;;20.40;45.10;;;;;;6274347;28;20031;-50
2020/12/27 01:07:24;;;;;;;0.98;0.50;;;20.40;45.10;;;;;;6288899;28;20450;-55
2020/12/27 01:10:25;;;;;;;1.55;0.55;;;20.40;45.10;;;;;;6298862;28;20424;-51
2020/12/27 01:13:26;;;;;;;1.33;0.70;;;20.40;45.00;;;;;;6299284;28;20066;-52
2020/12/27 01:16:26;;;;;;;1.95;0.75;;;20.40;45.10;;;;;;6304096;28;20016;-51
2020/12/27 01:19:27;;;;;;;1.00;0.60;;;20.40;45.00;;;;;;6303850;28;20549;-50
2020/12/27 01:22:32;;;;;;;0.95;0.70;;;20.40;45.20;;;;;;6304013;28;20030;-49
2020/12/27 01:25:33;;;;;;;1.02;0.60;;;20.40;45.10;;;;;;6321659;28;20047;-47
2020/12/27 01:28:33;;;;;;;0.70;0.68;;;20.40;45.10;;;;;;6303607;28;20480;-52
2020/12/27 01:31:34;;;;;;;1.00;0.70;;;20.30;45.10;;;;;;6303367;28;20024;-53
2020/12/27 01:34:34;;;;;;;1.58;0.75;;;20.30;45.00;;;;;;6303766;28;20024;-48
2020/12/27 01:37:35;;;;;;;3.78;0.50;;;20.30;45.00;;;;;;6303903;28;20055;-51
2020/12/27 01:40:37;;;;;;;1.00;0.65;;;20.30;45.00;;;;;;6303146;28;20020;-49
2020/12/27 01:43:37;;;;;;;1.15;0.70;;;20.30;45.10;;;;;;6303255;28;20032;-50
2020/12/27 01:46:41;;;;;;;0.98;0.57;;;20.30;45.10;;;;;;6302809;28;20035;-52
2020/12/27 01:49:46;;;;;;;0.60;0.60;;;20.40;45.20;;;;;;6303390;28;20111;-50
2020/12/27 01:52:47;;;;;;;1.17;0.70;;;20.30;45.10;;;;;;6303480;28;20115;-48
2020/12/27 01:55:47;;;;;;;0.85;0.60;;;20.30;45.10;;;;;;6303062;28;20032;-50
2020/12/27 01:58:53;;;;;;;0.98;0.60;;;20.30;45.00;;;;;;6303287;28;20051;-52
2020/12/27 02:01:54;;;;;;;1.20;0.60;;;20.30;45.00;;;;;;6302644;28;20035;-50
2020/12/27 02:04:54;;;;;;;0.93;0.63;;;20.30;45.00;;;;;;6303081;28;20032;-54
2020/12/27 02:07:55;;;;;;;0.75;0.70;;;20.30;45.10;;;;;;6302856;28;20219;-49
2020/12/27 02:10:56;;;;;;;1.13;0.60;;;20.30;45.10;;;;;;6303046;28;20020;-55
2020/12/27 02:13:56;;;;;;;0.77;0.50;;;20.30;45.10;;;;;;6302724;28;20065;-55
2020/12/27 02:16:57;;;;;;;0.55;0.40;;;20.30;45.20;;;;;;6302511;28;20024;-52
2020/12/27 02:19:58;;;;;;;0.80;0.55;;;20.30;45.10;;;;;;6302278;28;20123;-51
2020/12/27 02:22:59;;;;;;;0.73;0.50;;;20.30;45.10;;;;;;6302700;28;20024;-54
2020/12/27 02:26:00;;;;;;;0.77;0.65;;;20.30;45.10;;;;;;6302214;28;20049;-50
2020/12/27 02:29:00;;;;;;;0.70;0.60;;;20.30;45.10;;;;;;6302323;28;20032;-52
2020/12/27 02:32:01;;;;;;;0.88;0.60;;;20.30;45.10;;;;;;6302298;28;20027;-51
2020/12/27 02:35:02;;;;;;;1.17;0.73;;;20.30;45.10;;;;;;6302170;28;20024;-50
2020/12/27 02:38:03;;;;;;;0.65;0.60;;;20.30;45.10;;;;;;6301968;28;20054;-49
2020/12/27 02:41:15;;;;;;;0.80;0.60;;;20.30;45.10;;;;;;6301999;28;20032;-49
2020/12/27 02:44:16;;;;;;;0.52;0.52;;;20.30;45.10;;;;;;6302313;28;20031;-49
2020/12/27 02:47:16;;;;;;;0.77;0.60;;;20.20;45.70;;;;;;6301771;28;20220;-50
2020/12/27 02:50:17;;;;;;;1.15;0.77;;;20.20;45.10;;;;;;6301958;28;20055;-51
2020/12/27 02:53:17;;;;;;;0.93;0.60;;;20.30;45.10;;;;;;6301374;28;20024;-49
2020/12/27 02:56:23;;;;;;;0.63;0.45;;;20.20;45.00;;;;;;6301286;28;20028;-54
2020/12/27 02:59:24;;;;;;;0.50;0.47;;;20.20;45.00;;;;;;6301749;28;20021;-50
2020/12/27 03:02:24;;;;;;;0.65;0.45;;;20.20;45.10;;;;;;6301288;28;20669;-56
2020/12/27 03:05:25;;;;;;;0.50;0.50;;;20.20;45.00;;;;;;6301575;28;20078;-53
2020/12/27 03:08:26;;;;;;;0.73;0.55;;;20.20;45.00;;;;;;6301331;28;20488;-52
2020/12/27 03:11:26;;;;;;;0.60;0.50;;;20.20;45.10;;;;;;6301417;28;20055;-48
2020/12/27 03:14:27;;;;;;;0.60;0.50;;;20.20;45.10;;;;;;6318858;28;20016;-51
2020/12/27 03:17:27;;;;;;;1.05;0.60;;;20.20;45.10;;;;;;6301527;28;20039;-50
2020/12/27 03:20:28;;;;;;;0.80;0.47;;;20.20;45.10;;;;;;6301463;28;20024;-53
2020/12/27 03:23:28;;;;;;;0.93;0.50;;;20.20;45.00;;;;;;6300800;28;20089;-52
2020/12/27 03:26:29;;;;;;;0.43;0.40;;;20.20;45.00;;;;;;6301118;28;20028;-50
2020/12/27 03:29:30;;;;;;;0.45;0.40;;;20.20;45.10;;;;;;6300803;28;20423;-53
2020/12/27 03:32:31;;;;;;;0.40;0.40;;;20.20;45.10;;;;;;6293122;28;20033;-50
2020/12/27 03:35:32;;;;;;;0.60;0.50;;;20.20;45.10;;;;;;6275799;28;20070;-48
2020/12/27 03:38:32;;;;;;;1.00;0.70;;;20.20;45.20;;;;;;6275311;28;20377;-50
2020/12/27 03:41:33;;;;;;;1.55;0.55;;;20.20;45.10;;;;;;6275344;28;20127;-49
2020/12/27 03:44:33;;;;;;;0.63;0.40;;;20.20;45.10;;;;;;6275577;28;20481;-51
2020/12/27 03:47:34;;;;;;;0.50;0.43;;;20.10;45.10;;;;;;6280795;28;20024;-54
2020/12/27 03:50:34;;;;;;;1.08;0.60;;;20.10;45.10;;;;;;6300542;28;20484;-52
2020/12/27 03:53:35;;;;;;;0.73;0.60;;;20.20;45.10;;;;;;6300387;28;20028;-51
2020/12/27 03:56:35;;;;;;;0.65;0.40;;;20.20;45.10;;;;;;6300424;28;20542;-50
2020/12/27 03:59:36;;;;;;;0.43;0.40;;;20.10;45.10;;;;;;6300278;28;20024;-54
2020/12/27 04:02:37;;;;;;;1.92;0.50;;;20.20;45.20;;;;;;6300299;28;20077;-51
2020/12/27 04:05:37;;;;;;;0.52;0.40;;;20.10;45.10;;;;;;6300095;28;20027;-50
2020/12/27 04:08:38;;;;;;;0.52;0.40;;;20.10;45.10;;;;;;6299835;28;20073;-53
2020/12/27 04:11:38;;;;;;;0.52;0.52;;;20.10;45.10;;;;;;6300280;28;20369;-50
2020/12/27 04:14:39;;;;;;;0.70;0.40;;;20.10;45.10;;;;;;6280770;28;20240;-50
2020/12/27 04:17:40;;;;;;;0.60;0.43;;;20.10;45.10;;;;;;6275476;28;20399;-49
2020/12/27 04:20:40;;;;;;;0.50;0.50;;;20.10;45.10;;;;;;6275069;28;20411;-50
2020/12/27 04:23:41;;;;;;;0.57;0.43;;;20.10;45.20;;;;;;6285342;28;20024;-51
2020/12/27 04:26:42;;;;;;;1.75;0.50;;;20.10;45.20;;;;;;6299757;28;20035;-52
2020/12/27 04:29:43;;;;;;;0.93;0.52;;;20.10;45.20;;;;;;6300744;28;20024;-50
2020/12/27 04:32:44;;;;;;;0.95;0.40;;;20.10;45.10;;;;;;6300114;28;20027;-51
2020/12/27 04:35:44;;;;;;;0.65;0.47;;;20.10;45.10;;;;;;6299915;28;20153;-53
2020/12/27 04:38:45;;;;;;;0.60;0.43;;;20.10;45.10;;;;;;6300055;28;20024;-50
2020/12/27 04:41:46;;;;;;;0.55;0.47;;;20.10;45.10;;;;;;6299507;28;20424;-54
2020/12/27 04:44:47;;;;;;;0.38;0.30;;;20.10;45.10;;;;;;6299627;28;20233;-51
2020/12/27 04:47:48;;;;;;;0.40;0.40;;;20.10;45.20;;;;;;6299619;28;20043;-51
2020/12/27 04:50:49;;;;;;;0.43;0.40;;;20.10;45.10;;;;;;6304037;28;20114;-50
2020/12/27 04:53:50;;;;;;;0.73;0.60;;;20.10;45.10;;;;;;6304574;28;20073;-51
2020/12/27 04:56:51;;;;;;;0.38;0.30;;;20.10;45.10;;;;;;6304501;28;20024;-53
2020/12/27 04:59:54;;;;;;;0.93;0.60;;;20.10;45.10;;;;;;6322472;28;20481;-52
2020/12/27 05:02:55;;;;;;;0.30;0.30;;;20.00;45.00;;;;;;6304353;28;20032;-51
2020/12/27 05:05:56;;;;;;;0.40;0.38;;;20.10;45.10;;;;;;6304243;28;20016;-52
2020/12/27 05:08:59;;;;;;;0.73;0.50;;;20.00;45.00;;;;;;6304437;28;20380;-53
2020/12/27 05:11:59;;;;;;;0.50;0.40;;;20.10;45.00;;;;;;6304332;28;20024;-50
2020/12/27 05:15:00;;;;;;;0.55;0.40;;;20.10;44.90;;;;;;6304066;28;20024;-53
2020/12/27 05:18:01;;;;;;;0.60;0.47;;;20.20;44.80;;;;;;6322420;28;20031;-50
2020/12/27 05:21:03;;;;;;;0.63;0.50;;;20.30;44.70;;;;;;6303663;28;20339;-50
2020/12/27 05:24:05;;;;;;;0.55;0.50;;;20.30;44.70;;;;;;6301994;28;20119;-51
2020/12/27 05:27:08;;;;;;;0.80;0.52;;;20.40;44.70;;;;;;6278908;28;20028;-50
2020/12/27 05:30:09;;;;;;;0.50;0.40;;;20.40;44.60;;;;;;6278448;28;20028;-54
2020/12/27 05:33:11;;;;;;;0.30;0.30;;;20.30;44.60;;;;;;6278674;28;20025;-54
2020/12/27 05:36:14;;;;;;;0.70;0.50;;;20.30;44.60;;;;;;6278820;28;20021;-52
2020/12/27 05:39:15;;;;;;;0.43;0.40;;;20.30;44.70;;;;;;6278270;28;20393;-52
2020/12/27 05:42:16;;;;;;;0.32;0.32;;;20.30;44.80;;;;;;6278701;28;20123;-53
2020/12/27 05:45:18;;;;;;;0.45;0.40;;;20.30;44.80;;;;;;6287390;28;20031;-49
2020/12/27 05:48:20;;;;;;;0.50;0.40;;;20.40;44.80;;;;;;6303365;28;20485;-53
2020/12/27 05:51:22;;;;;;;0.65;0.50;;;20.30;44.70;;;;;;6302911;28;20024;-49
2020/12/27 05:54:33;;;;;;;0.75;0.40;;;20.40;44.80;;;;;;6303205;28;20388;-51
2020/12/27 05:57:34;;;;;;;0.50;0.50;;;20.40;44.80;;;;;;6302924;28;20060;-56
2020/12/27 06:00:36;;;;;;;0.80;0.50;;;20.30;44.80;;;;;;6302437;28;20028;-49
2020/12/27 06:03:55;;;;;;;0.60;0.40;;;20.40;44.80;;;;;;6303065;28;20020;-52
2020/12/27 06:07:04;;;;;;;0.95;0.50;;;20.40;44.80;;;;;;6302516;28;20057;-51
2020/12/27 06:10:10;;;;;;;0.45;0.40;;;20.40;44.70;;;;;;6302695;28;20024;-51
2020/12/27 06:13:27;;;;;;;0.50;0.38;;;20.40;44.80;;;;;;6303031;28;20790;-50
2020/12/27 06:16:40;;;;;;;0.63;0.40;;;20.40;44.80;;;;;;6302383;28;20527;-52
2020/12/27 06:19:56;;;;;;;0.52;0.40;;;20.40;44.80;;;;;;6302430;28;20473;-51
2020/12/27 06:23:01;;;;;;;0.55;0.45;;;20.40;44.80;;;;;;6302484;28;20047;-55
2020/12/27 06:26:03;;;;;;;0.40;0.40;;;20.40;44.80;;;;;;6292887;28;20060;-50
2020/12/27 06:29:03;;;;;;;0.60;0.40;;;20.40;44.80;;;;;;6295646;28;20083;-49
2020/12/27 06:32:06;;;;;;;0.43;0.40;;;20.40;44.70;;;;;;6276845;28;20016;-53
2020/12/27 06:35:08;;;;;;;0.45;0.45;;;20.40;44.70;;;;;;6277547;28;20021;-49
2020/12/27 06:38:21;;;;;;;1.73;0.40;;;20.40;44.70;;;;;;6277232;28;20071;-49
2020/12/27 06:41:22;;;;;;;0.50;0.40;;;20.40;44.80;;;;;;6276882;28;20025;-53
2020/12/27 06:44:38;;;;;;;0.68;0.35;;;20.30;44.80;;;;;;6277171;28;20021;-51
2020/12/27 06:47:54;;;;;;;0.85;0.50;;;20.30;44.90;;;;;;6277177;28;20028;-51
2020/12/27 06:50:54;;;;;;;0.32;0.30;;;20.30;44.80;;;;;;6276452;28;20048;-51
2020/12/27 06:53:55;;;;;;;0.70;0.40;;;20.40;44.90;;;;;;6276613;28;20050;-53
2020/12/27 06:56:56;;;;;;;1.13;0.40;;;20.40;44.80;;;;;;6276194;28;20103;-51
2020/12/27 06:59:56;;;;;;;0.40;0.40;;;20.40;44.80;;;;;;6309159;28;20012;-54
2020/12/27 07:03:11;;;;;;;0.95;0.47;;;20.30;44.80;;;;;;6300868;28;20113;-52
2020/12/27 07:06:25;;;;;;;0.25;0.25;;;20.40;44.90;;;;;;6297898;28;20032;-55
2020/12/27 07:09:27;;;;;;;1.90;0.40;;;20.30;44.80;;;;;;6287796;28;20054;-52
2020/12/27 07:12:27;;;;;;;0.60;0.40;;;20.30;44.80;;;;;;6300025;28;20086;-50
2020/12/27 07:15:28;;;;;;;0.52;0.50;;;20.30;44.80;;;;;;6300681;28;20051;-52
2020/12/27 07:18:29;;;;;;;0.80;0.40;;;20.40;44.90;;;;;;6300800;28;20415;-51
2020/12/27 07:21:30;;;;;;;0.77;0.40;;;20.30;44.80;;;;;;6300578;28;20123;-52
2020/12/27 07:24:35;;;;;;;0.47;0.40;;;20.30;44.80;;;;;;6300365;28;20035;-54
2020/12/27 07:27:39;;;;;;;1.60;0.47;;;20.30;44.90;;;;;;6300324;28;20028;-50
2020/12/27 07:30:40;;;;;;;0.40;0.40;;;20.30;44.80;;;;;;6280148;28;20027;-54
2020/12/27 07:33:41;;;;;;;0.57;0.50;;;20.30;44.90;;;;;;6275601;28;20052;-50
2020/12/27 07:36:42;;;;;;;0.30;0.30;;;20.30;44.80;;;;;;6275427;28;20030;-53
2020/12/27 07:39:54;;;;;;;0.30;0.30;;;20.30;44.90;;;;;;6275360;28;20061;-49
2020/12/27 07:42:55;;;;;;;0.60;0.50;;;20.30;44.80;;;;;;6275154;28;20103;-53
2020/12/27 07:45:55;;;;;;;0.80;0.50;;;20.30;44.90;;;;;;6274989;28;20028;-53
2020/12/27 07:48:56;;;;;;;0.32;0.32;;;20.30;44.80;;;;;;6274833;28;20035;-51
2020/12/27 07:51:56;;;;;;;0.57;0.50;;;20.30;44.80;;;;;;6289613;28;20498;-52
2020/12/27 07:54:57;;;;;;;0.98;0.50;;;20.30;44.80;;;;;;6299506;28;20032;-53
2020/12/27 07:58:00;;;;;;;0.85;0.70;;;20.30;44.80;;;;;;6300193;28;20020;-51
2020/12/27 08:01:00;;;;;;;0.70;0.50;;;20.30;44.70;;;;;;6299870;28;20039;-53
2020/12/27 08:04:06;;;;;;;1.33;0.60;;;20.30;44.80;;;;;;6299092;28;20032;-52
2020/12/27 08:07:07;;;;;;;0.30;0.30;;;20.30;44.60;;;;;;6300246;28;20032;-54
2020/12/27 08:10:18;;;;;;;1.15;0.50;;;20.30;44.60;;;;;;6299114;28;20166;-50
2020/12/27 08:13:21;;;;;;;0.60;0.50;;;20.30;44.60;;;;;;6300072;28;20344;-49
2020/12/27 08:16:21;;;;;;;0.32;0.30;;;20.30;44.50;;;;;;6299884;28;20059;-51
2020/12/27 08:19:22;;;;;;;1.23;0.57;;;20.40;44.60;;;;;;6299763;28;20042;-53
2020/12/27 08:22:23;;;;;;;0.25;0.25;;;20.30;44.40;;;;;;6298703;28;20484;-50
2020/12/27 08:25:24;;;;;;;0.77;0.57;;;20.30;44.50;;;;;;6299432;28;20035;-53
2020/12/27 08:28:24;;;;;;;0.52;0.45;;;20.30;44.50;;;;;;6297726;28;20437;-55
2020/12/27 08:31:28;;;;;;;0.40;0.30;;;20.30;44.50;;;;;;6274506;28;20120;-49
2020/12/27 08:34:28;;;;;;;0.80;0.60;;;20.30;44.50;;;;;;6274685;28;20039;-52
2020/12/27 08:37:34;;;;;;;0.70;0.40;;;20.30;44.40;;;;;;6274435;28;20028;-50
2020/12/27 08:40:37;;;;;;;0.40;0.40;;;20.30;44.50;;;;;;6285353;28;20152;-49
2020/12/27 08:43:51;;;;;;;0.70;0.35;;;20.30;44.50;;;;;;6299373;28;20024;-52
2020/12/27 08:46:52;;;;;;;0.75;0.40;;;20.30;44.70;;;;;;6299334;28;20032;-50
2020/12/27 08:50:29;;;;;;;3.28;0.63;;;20.30;44.50;;;;;;6290189;28;20020;-51
2020/12/27 08:53:39;;;;;;;5.63;0.70;;;20.20;44.30;;;;;;6282149;28;20055;-53
2020/12/27 08:56:40;;;;;;;4.93;0.75;;;20.20;44.50;;;;;;6295216;28;20385;-54
2020/12/27 08:59:56;;;;;;;1.65;0.50;;;20.30;44.30;;;;;;6296663;28;20059;-53
2020/12/27 09:02:57;;;;;;;2.17;0.70;;;20.30;45.00;;;;;;6285651;28;20382;-55
2020/12/27 09:06:12;;;;;;;1.75;0.50;;;20.40;44.70;;;;;;6286286;28;20028;-56
2020/12/27 09:09:18;;;;;;;1.85;0.60;;;20.50;45.60;;;;;;6284709;28;20025;-50
2020/12/27 09:12:19;;;;;;;0.95;0.47;;;20.50;45.30;;;;;;6272790;28;20024;-50
2020/12/27 09:15:38;;;;;;;4.82;0.50;;;20.50;45.00;;;;;;6295089;28;20531;-51
2020/12/27 09:18:42;;;;;;;3.33;0.60;;;20.60;44.70;;;;;;6297056;28;20059;-52
2020/12/27 09:21:42;;;;;;;2.17;0.40;;;20.70;44.50;;;;;;6294574;28;20020;-52
2020/12/27 09:24:43;;;;;;;1.65;0.40;;;20.80;44.40;;;;;;6281768;28;20028;-49
2020/12/27 09:27:44;;;;;;;0.65;0.40;;;20.90;44.40;;;;;;6293426;28;20037;-56
2020/12/27 09:30:57;;;;;;;0.73;0.30;;;20.90;44.30;;;;;;6319497;28;20020;-51
2020/12/27 09:33:57;;;;;;;0.57;0.40;;;21.00;44.60;;;;;;6294120;28;20024;-52
2020/12/27 09:37:10;;;;;;;2.97;0.50;;;21.00;44.60;;;;;;6286045;28;20048;-54
2020/12/27 09:40:13;;;;;;;1.05;0.40;;;21.10;44.60;;;;;;6301725;28;20027;-51
2020/12/27 09:43:14;;;;;;;1.50;0.60;;;21.10;44.60;;;;;;6299671;28;20032;-55
2020/12/27 09:46:40;;;;;;;0.95;0.50;;;21.20;44.40;;;;;;6307640;28;20035;-53
2020/12/27 09:49:41;;;;;;;1.08;0.40;;;21.20;44.40;;;;;;6289848;28;20043;-50
2020/12/27 09:52:46;;;;;;;0.90;0.40;;;21.20;44.50;;;;;;6299936;28;20463;-55
2020/12/27 09:55:49;;;;;;;0.50;0.47;;;21.30;44.50;;;;;;6288797;28;20404;-54
2020/12/27 09:58:50;;;;;;;0.60;0.50;;;21.30;44.60;;;;;;6293227;28;20024;-54
2020/12/27 10:01:50;;;;;;;0.98;0.50;;;21.30;44.50;;;;;;6279423;28;20512;-52
2020/12/27 10:04:51;;;;;;;1.38;0.75;;;21.30;44.50;;;;;;6293669;28;20341;-50
2020/12/27 10:07:51;;;;;;;2.70;0.43;;;21.30;44.50;;;;;;6300170;28;20052;-51
2020/12/27 10:10:52;;;;;;;1.45;0.65;;;21.30;44.50;;;;;;6304356;28;20048;-52
2020/12/27 10:13:52;;;;;;;1.70;0.57;;;21.30;44.60;;;;;;6296230;28;20047;-56
2020/12/27 10:16:56;;;;;;;4.47;0.70;;;21.40;44.20;;;;;;6285404;28;20592;-55
2020/12/27 10:19:58;;;;;;;2.53;0.40;;;21.60;43.90;;;;;;6287339;28;20479;-55
2020/12/27 10:22:59;;;;;;;2.50;0.75;;;21.60;43.70;;;;;;6291537;28;20020;-50
2020/12/27 10:26:00;;;;;;;4.88;0.60;;;21.60;43.90;;;;;;6297022;28;20439;-50
2020/12/27 10:29:00;;;;;;;7.63;0.68;;;21.50;44.00;;;;;;6278419;28;20036;-55
2020/12/27 10:32:03;;;;;;;14.38;0.80;;;21.60;44.00;;;;;;6275798;28;20381;-52
2020/12/27 10:35:04;;;;;;;4.85;0.50;;;21.70;43.90;;;;;;6294188;28;20024;-54
2020/12/27 10:38:04;;;;;;;16.42;1.00;;;21.70;43.90;;;;;;6283254;28;20036;-55
2020/12/27 10:41:06;;;;;;;39.38;1.75;;;21.70;43.80;;;;;;6290937;28;20030;-51
2020/12/27 10:44:07;;;;;;;20.42;1.27;;;21.70;44.00;;;;;;6297283;28;20582;-51
2020/12/27 10:47:08;;;;;;;42.25;2.30;;;21.70;43.90;;;;;;6303226;28;20371;-54
2020/12/27 10:50:09;;;;;;;20.67;1.25;;;21.70;44.00;;;;;;6285464;28;20012;-53
2020/12/27 10:53:10;;;;;;;15.77;1.08;;;21.70;43.10;;;;;;6300588;28;20031;-52
2020/12/27 10:56:11;;;;;;;16.48;1.50;;;21.70;43.50;;;;;;6290483;28;20047;-51
2020/12/27 10:59:14;;;;;;;13.60;1.00;;;21.70;43.70;;;;;;6297049;28;20028;-53
2020/12/27 11:02:15;;;;;;;24.30;2.15;;;21.70;43.70;;;;;;6287745;28;20032;-49
2020/12/27 11:05:15;;;;;;;9.00;0.82;;;21.70;43.80;;;;;;6275113;28;20025;-52
2020/12/27 11:08:16;;;;;;;17.70;2.15;;;21.70;43.60;;;;;;6287103;28;20552;-53
2020/12/27 11:11:19;;;;;;;8.25;0.80;;;21.70;43.90;;;;;;6285392;28;20670;-53
2020/12/27 11:14:20;;;;;;;16.17;1.10;;;21.70;43.90;;;;;;6294241;28;20046;-55
2020/12/27 11:17:22;;;;;;;53.03;2.28;;;21.70;43.70;;;;;;6287241;28;20074;-52
2020/12/27 11:20:23;;;;;;;20.77;1.08;;;21.60;44.00;;;;;;6274844;28;20027;-50
2020/12/27 11:23:24;;;;;;;19.02;1.42;;;21.70;43.90;;;;;;6279505;28;20025;-51
2020/12/27 11:26:24;;;;;;;9.32;0.80;;;21.70;44.10;;;;;;6291175;28;20020;-51
2020/12/27 11:29:25;;;;;;;6.47;0.90;;;21.70;44.10;;;;;;6289112;28;20054;-49
2020/12/27 11:32:27;;;;;;;14.25;1.08;;;21.70;44.10;;;;;;6276292;28;20021;-52
2020/12/27 11:35:27;;;;;;;6.15;0.75;;;21.70;43.60;;;;;;6282547;28;20020;-60
2020/12/27 11:38:28;;;;;;;22.00;1.50;;;21.70;44.00;;;;;;6288026;28;20544;-49
2020/12/27 11:41:28;;;;;;;7.50;1.23;;;21.70;44.10;;;;;;6298974;28;20444;-50
2020/12/27 11:44:29;;;;;;;7.13;1.33;;;21.50;44.40;;;;;;6298814;28;20415;-49
2020/12/27 11:47:29;;;;;;;18.45;1.13;;;21.50;44.60;;;;;;6298375;28;20035;-50
2020/12/27 11:50:30;;;;;;;6.13;1.08;;;21.40;44.60;;;;;;6296036;28;20024;-49
2020/12/27 11:53:30;;;;;;;3.65;0.73;;;21.50;44.70;;;;;;6299197;28;20032;-52
2020/12/27 11:56:31;;;;;;;4.35;1.15;;;21.40;44.40;;;;;;6298340;28;20028;-51
2020/12/27 11:59:33;;;;;;;10.80;0.98;;;21.40;44.70;;;;;;6293231;28;20013;-52
2020/12/27 12:02:33;;;;;;;5.60;0.80;;;21.40;44.70;;;;;;6300142;28;20042;-52
2020/12/27 12:05:34;;;;;;;9.48;0.98;;;21.40;44.80;;;;;;6298054;28;20024;-50
2020/12/27 12:08:34;;;;;;;3.03;0.57;;;21.40;44.60;;;;;;6309247;28;20032;-50
2020/12/27 12:11:36;;;;;;;3.50;0.77;;;21.40;44.60;;;;;;6291327;28;20259;-49
2020/12/27 12:14:38;;;;;;;16.60;1.13;;;21.40;44.80;;;;;;6295925;28;20165;-51
2020/12/27 12:17:38;;;;;;;12.93;0.95;;;21.40;44.90;;;;;;6288747;28;20078;-52
2020/12/27 12:20:48;;;;;;;9.45;0.95;;;21.40;45.20;;;;;;6296896;28;20028;-54
2020/12/27 12:23:48;;;;;;;3.55;1.00;;;21.40;44.80;;;;;;6280390;28;20032;-53
2020/12/27 12:26:49;;;;;;;6.88;1.02;;;21.30;42.90;;;;;;6295527;28;20036;-53
2020/12/27 12:29:50;;;;;;;5.40;0.80;;;21.30;44.00;;;;;;6296426;28;20032;-55
2020/12/27 12:32:51;;;;;;;7.15;0.90;;;21.40;43.30;;;;;;6292606;28;20408;-53
2020/12/27 12:35:52;;;;;;;1.70;0.70;;;21.40;42.90;;;;;;6297058;28;20028;-52
2020/12/27 12:38:52;;;;;;;4.70;0.60;;;21.40;43.30;;;;;;6302345;28;20020;-57
2020/12/27 12:41:56;;;;;;;5.90;1.02;;;21.40;43.40;;;;;;6298079;28;20654;-53
2020/12/27 12:44:57;;;;;;;2.55;0.63;;;21.40;42.50;;;;;;6297778;28;20028;-56
2020/12/27 12:47:58;;;;;;;3.45;0.50;;;21.40;42.60;;;;;;6295553;28;20393;-50
2020/12/27 12:50:59;;;;;;;5.18;0.82;;;21.30;43.30;;;;;;6302414;28;20107;-54
2020/12/27 12:54:00;;;;;;;12.25;0.80;;;21.30;43.80;;;;;;6297403;28;20389;-52
2020/12/27 12:57:00;;;;;;;1.30;0.57;;;21.40;44.20;;;;;;6297524;28;20089;-56
2020/12/27 13:00:01;;;;;;;4.32;0.80;;;21.40;43.60;;;;;;6297971;28;20028;-50
2020/12/27 13:03:01;;;;;;;3.10;0.50;;;21.30;42.20;;;;;;6289136;28;20028;-53
2020/12/27 13:06:02;;;;;;;5.28;0.60;;;21.30;42.90;;;;;;6296729;28;20085;-54
2020/12/27 13:09:03;;;;;;;6.03;0.70;;;21.30;42.60;;;;;;6294457;28;20468;-55
2020/12/27 13:12:03;;;;;;;4.03;0.88;;;21.30;42.70;;;;;;6277524;28;20029;-59
2020/12/27 13:15:04;;;;;;;5.50;0.82;;;21.30;43.90;;;;;;6302257;28;20524;-52
2020/12/27 13:18:04;;;;;;;5.85;0.68;;;21.30;43.50;;;;;;6302913;28;20679;-52
2020/12/27 13:21:05;;;;;;;5.22;0.57;;;21.30;43.00;;;;;;6295327;28;20024;-56
2020/12/27 13:24:05;;;;;;;4.82;0.70;;;21.30;43.70;;;;;;6284842;28;20024;-52
2020/12/27 13:27:06;;;;;;;2.00;0.60;;;21.40;43.90;;;;;;6290624;28;20020;-50
2020/12/27 13:30:11;;;;;;;3.58;0.75;;;21.50;44.00;;;;;;6286572;28;20333;-55
2020/12/27 13:33:13;;;;;;;8.30;0.90;;;21.50;43.60;;;;;;6278861;28;20044;-50
2020/12/27 13:36:14;;;;;;;2.05;0.60;;;21.30;44.00;;;;;;6277180;28;20062;-51
2020/12/27 13:39:14;;;;;;;1.00;0.50;;;21.40;43.70;;;;;;6290009;28;20115;-53
2020/12/27 13:42:15;;;;;;;2.22;0.85;;;21.30;43.60;;;;;;6313489;28;20043;-55
2020/12/27 13:45:15;;;;;;;1.65;0.47;;;21.30;43.50;;;;;;6287692;28;20032;-52
2020/12/27 13:48:16;;;;;;;6.88;0.63;;;21.30;44.60;;;;;;6308107;28;20047;-52
2020/12/27 13:51:21;;;;;;;2.15;0.60;;;21.40;43.50;;;;;;6297685;28;20477;-52
2020/12/27 13:54:22;;;;;;;2.55;0.50;;;21.40;43.50;;;;;;6302027;28;20032;-51
2020/12/27 13:57:23;;;;;;;2.38;0.60;;;21.40;43.40;;;;;;6301129;28;20032;-52
2020/12/27 14:00:23;;;;;;;7.45;1.00;;;21.40;44.60;;;;;;6291854;28;20025;-54
2020/12/27 14:03:24;;;;;;;6.07;0.90;;;21.40;44.60;;;;;;6293976;28;20024;-53
2020/12/27 14:06:28;;;;;;;1.42;0.70;;;21.40;44.20;;;;;;6297072;28;20056;-52
2020/12/27 14:09:29;;;;;;;6.87;0.67;;;21.40;43.60;;;;;;6293775;28;20214;-52
2020/12/27 14:12:30;;;;;;;7.45;0.75;;;21.40;44.30;;;;;;6298813;28;20054;-54
2020/12/27 14:15:30;;;;;;;1.52;0.63;;;21.40;43.90;;;;;;6297683;28;20024;-53
2020/12/27 14:18:31;;;;;;;1.67;0.50;;;21.30;43.90;;;;;;6298278;28;20088;-54
2020/12/27 14:21:31;;;;;;;1.63;0.73;;;21.30;43.80;;;;;;6298069;28;20024;-50
2020/12/27 14:24:32;;;;;;;1.40;0.32;;;21.40;43.60;;;;;;6299262;28;20515;-54
2020/12/27 14:27:33;;;;;;;2.88;0.70;;;21.40;44.00;;;;;;6297210;28;20066;-51
2020/12/27 14:30:33;;;;;;;3.33;0.60;;;21.40;43.60;;;;;;6299048;28;20054;-56
2020/12/27 14:33:34;;;;;;;0.80;0.50;;;21.40;43.80;;;;;;6299425;28;20377;-55
2020/12/27 14:36:35;;;;;;;1.15;0.50;;;21.30;43.80;;;;;;6317218;28;20052;-53
2020/12/27 14:39:35;;;;;;;0.80;0.50;;;21.30;43.60;;;;;;6296625;28;20044;-51
2020/12/27 14:42:36;;;;;;;1.90;0.60;;;21.30;43.70;;;;;;6299234;28;20076;-58
2020/12/27 14:45:36;;;;;;;0.90;0.50;;;21.30;43.30;;;;;;6298621;28;20028;-57
2020/12/27 14:48:37;;;;;;;1.25;0.68;;;21.30;44.10;;;;;;6299269;28;20036;-57
2020/12/27 14:51:37;;;;;;;0.65;0.47;;;21.30;43.80;;;;;;6316228;28;20381;-51
2020/12/27 14:54:38;;;;;;;1.08;0.50;;;21.20;43.70;;;;;;6296850;28;20040;-54
2020/12/27 14:57:38;;;;;;;1.67;0.45;;;21.30;43.70;;;;;;6296286;28;20035;-55
2020/12/27 15:00:39;;;;;;;1.17;0.57;;;21.30;43.70;;;;;;6296670;28;20432;-53
2020/12/27 15:03:40;;;;;;;4.00;0.60;;;21.30;44.10;;;;;;6298512;28;20030;-55
2020/12/27 15:06:40;;;;;;;5.13;0.80;;;21.30;43.40;;;;;;6296107;28;20031;-56
2020/12/27 15:09:41;;;;;;;6.38;0.70;;;21.30;43.20;;;;;;6298892;28;20028;-55
2020/12/27 15:12:42;;;;;;;1.30;0.60;;;21.30;43.20;;;;;;6297795;28;20492;-56
2020/12/27 15:15:42;;;;;;;2.42;0.57;;;21.30;43.40;;;;;;6316022;28;20024;-51
2020/12/27 15:18:43;;;;;;;3.08;0.65;;;21.30;43.40;;;;;;6296779;28;20321;-53
2020/12/27 15:21:43;;;;;;;4.63;0.77;;;21.30;43.70;;;;;;6297110;28;20027;-56
2020/12/27 15:24:44;;;;;;;0.55;0.47;;;21.30;43.30;;;;;;6298083;28;20032;-54
2020/12/27 15:27:44;;;;;;;0.55;0.40;;;21.30;44.40;;;;;;6295878;28;20071;-54
2020/12/27 15:30:45;;;;;;;1.98;0.47;;;21.20;43.60;;;;;;6289355;28;20035;-52
2020/12/27 15:33:45;;;;;;;1.08;0.70;;;21.20;43.60;;;;;;6295906;28;20030;-50
2020/12/27 15:36:47;;;;;;;1.55;0.45;;;21.30;43.60;;;;;;6295370;28;20024;-56
2020/12/27 15:39:47;;;;;;;0.80;0.55;;;21.30;43.10;;;;;;6315233;28;20047;-53
2020/12/27 15:42:48;;;;;;;2.03;0.60;;;21.20;43.90;;;;;;6295274;28;20023;-53
2020/12/27 15:45:48;;;;;;;2.10;0.55;;;21.30;43.40;;;;;;6296415;28;20028;-55